This is the latest recevied weather packets stored in our database for station/object OK1FET-6. If no packets are shown the sender has not sent any weather packets the latest 10 day(s).
| Time | Temp. | Humidity | Pressure | Rain* | Wind** | Luminosity | Snow |
|---|---|---|---|---|---|---|---|
| 1788433967 | 32.22° C | 29% | 1019.4 hPa | 0 mm | - | - | - |
| 1788433369 | 32.78° C | 28% | 1019.8 hPa | 0 mm | - | - | - |
| 1788431572 | 34.44° C | 28% | 1020.1 hPa | 0 mm | - | - | - |
| 1788430968 | 36.11° C | 27% | 1020.2 hPa | 0 mm | - | - | - |
| 1788430369 | 37.78° C | 26% | 1020.3 hPa | 0 mm | - | - | - |
| 1788429771 | 40.56° C | 25% | 1020.6 hPa | 0 mm | - | - | - |
| 1788429172 | 40.56° C | 26% | 1020.6 hPa | 0 mm | - | - | - |
| 1788428573 | 39.44° C | 27% | 1020.5 hPa | 0 mm | - | - | - |
| 1788427972 | 36.67° C | 29% | 1020.4 hPa | 0 mm | - | - | - |
| 1788426771 | 35° C | 32% | 1020.6 hPa | 0 mm | - | - | - |
| 1788426172 | 35° C | 33% | 1020.5 hPa | 0 mm | - | - | - |
| 1788425571 | 34.44° C | 35% | 1020.5 hPa | 0 mm | - | - | - |
| 1788424970 | 35° C | 35% | 1020.6 hPa | 0 mm | - | - | - |
| 1788424372 | 36.67° C | 34% | 1020.8 hPa | 0 mm | - | - | - |
| 1788423773 | 37.22° C | 36% | 1020.7 hPa | 0 mm | - | - | - |
| 1788423175 | 36.11° C | 37% | 1020.8 hPa | 0 mm | - | - | - |
| 1788422574 | 35° C | 38% | 1020.9 hPa | 0 mm | - | - | - |
| 1788421974 | 33.89° C | 40% | 1021 hPa | 0 mm | - | - | - |
| 1788421375 | 32.22° C | 42% | 1020.8 hPa | 0 mm | - | - | - |
| 1788420775 | 30.56° C | 45% | 1020.9 hPa | 0 mm | - | - | - |
| 1788420176 | 27.78° C | 48% | 1020.9 hPa | 0 mm | - | - | - |
| 1788419577 | 25.56° C | 50% | 1020.9 hPa | 0 mm | - | - | - |
| 1788418979 | 22.78° C | 54% | 1020.9 hPa | 0 mm | - | - | - |
| 1788418380 | 20° C | 58% | 1020.8 hPa | 0 mm | - | - | - |
| 1788417179 | 16.67° C | 63% | 1020.6 hPa | 0 mm | - | - | - |
* Rain latest hour (hover to see other rain measurements)
** Current wind speed in m/s (hover to see current wind gust speed)